Historyczne dane pomiarowe

Dodano dane terminowe – wersja testowa.

Dane z okresu 1951-2019

Wersja bazy: 1.34 [2019-03-16, lista zmian], aktualizacja planowana na 2019-04-15

Dane meteo z obszaru Polski uzyskane na podstawie danych udostępnionych przez Instytut Meteorologii i Gospodarki Wodnej – Państwowy Instytut Badawczy.

 

Wybierz Datę:    

       

TemperaturaWilgotnośćWiatrCiśnienieOpadyŚniegCzas trwania zjawisk
 Stacja t tx tn tng RH VA  wxwx mslp ppp RRR   cm mm wxwxwxwxwxwxwx
1999-08-14 14.5 19.7 10.7 8.1 93.0- 7.7 3.3---- 2.4------------
1999-08-13 17.1 22.3 13.7 13.1 82.3- 3.7 3.3---- 0.9------------
1999-08-12 17.0 22.5 12.2 11.6 77.3- 3.0 3.3---- 0.0------------
1999-08-11 19.0 22.6 16.9 15.6 93.5- 7.7 2.0---- 7.5------------
1999-08-10 20.8 28.8 15.5 12.3 78.8- 3.3 1.7---- 2.1------------
1999-08-09 21.7 28.8 15.7 14.6 86.3- 4.0 1.0---- 0.7------------
1999-08-08 18.9 23.5 14.7 11.7 93.0- 7.7 1.7---- 20.7------------
1999-08-07 21.4 29.4 13.0 9.6 72.3- 2.3 1.3---- 0.0------------
1999-08-06 21.4 28.9 15.2 11.6 64.0- 3.7 1.3---- 0.0------------
1999-08-05 19.6 28.2 10.2 6.6 60.8- 0.7 0.3---- 0.0------------
1999-08-04 19.8 27.0 12.7 8.1 62.0- 4.0 0.0---- 0.0------------
1999-08-03 19.2 25.6 11.4 6.8 53.5- 1.0 1.7---- 0.0------------
1999-08-02 19.6 25.6 12.7 8.6 61.8- 1.0 1.3---- 0.0------------
1999-08-01 19.1 24.9 13.4 10.3 67.8- 2.0 3.3---- 0.0------------
1999-07-31 20.7 27.0 13.7 11.9 62.8- 0.3 5.3---- 0.0------------
1999-07-30 19.5 26.2 12.2 10.2 62.3- 0.7 2.7---- 0.0------------
1999-07-29 18.8 24.8 10.7 7.9 61.5- 1.0 3.0---- 0.0------------
1999-07-28 18.7 23.7 14.4 13.2 74.0- 5.7 3.0---- 0.0------------
1999-07-27 19.0 24.7 13.7 13.4 71.0- 1.0 1.3---- 0.0------------
1999-07-26 21.2 27.8 17.1 15.1 78.8- 5.7 2.7---- 0.9------------
1999-07-25 19.4 25.9 11.7 7.9 72.3- 4.0 3.0---- 0.0------------
1999-07-24 18.2 23.9 11.7 8.6 77.3- 0.7 4.3---- 0.0------------
1999-07-23 16.2 20.7 9.4 7.1 82.3- 5.7 0.3---- 0.0------------
1999-07-22 19.2 23.8 14.7 12.9 75.5- 2.0 4.0---- 0.0------------
1999-07-21 21.3 29.1 15.3 12.7 73.5- 6.0 3.0---- 0.0------------
1999-07-20 21.7 28.4 11.7 10.1 70.3- 0.0 1.7---- 0.0------------
1999-07-19 21.3 27.2 15.1 13.1 65.0- 1.0 4.0---- 0.0------------
1999-07-18 18.8 25.9 10.7 8.7 66.3- 2.7 1.0---- 0.0------------
1999-07-17 16.9 23.2 8.8 7.1 73.3- 1.0 1.7---- 0.0------------
1999-07-16 16.5 21.7 11.4 9.3 75.0- 1.7 2.0---- 0.0------------
1999-07-15 17.3 23.5 13.4 13.1 90.3- 6.7 1.7---- 6.0------------
1999-07-14 22.0 26.2 17.7 16.3 78.8- 5.7 3.3---- 10.2------------
1999-07-13 21.9 28.6 14.7 12.4 59.5- 2.7 1.0---- 0.0------------
1999-07-12 21.7 28.0 13.7 10.3 59.5- 1.0 2.0---- 0.0------------
1999-07-11 20.9 27.0 12.5 8.8 56.8- 0.0 1.0---- 0.0------------
1999-07-10 19.9 24.7 13.7 12.1 56.0- 0.0 3.0---- 0.0------------
1999-07-09 20.0 24.9 15.2 14.8 70.0- 1.3 5.0---- 0.0------------
1999-07-08 19.7 23.2 16.1 14.7 85.8- 6.0 4.3---- 2.8------------
1999-07-07 21.3 27.1 17.6 17.2 80.8- 6.0 3.3---- 0.0------------
1999-07-06 25.4 31.6 19.1 16.6 65.5- 1.7 1.7---- 0.0------------
1999-07-05 25.3 31.3 19.0 17.2 69.3- 1.0 1.7---- 0.0------------
1999-07-04 23.3 29.8 13.7 11.6 62.0- 1.0 2.0---- 0.0------------
1999-07-03 19.3 24.9 11.4 9.7 71.8- 2.0 2.0---- 0.0------------
1999-07-02 19.0 23.6 14.7 12.3 80.3- 2.7 2.0---- 0.0------------
1999-07-01 20.3 26.1 10.7 9.7 60.3- 2.0 1.0---- 0.0------------
1999-06-30 18.1 23.7 9.6 7.6 63.3- 2.7 1.7---- 0.0------------
1999-06-29 19.6 25.3 15.2 12.9 74.5- 6.0 3.7---- 0.0------------
1999-06-28 21.5 27.3 13.1 9.6 68.8- 2.7 2.0---- 0.0------------
1999-06-27 18.9 24.6 10.2 8.0 59.8- 1.3 1.3---- 0.0------------
1999-06-26 14.9 20.2 9.2 7.1 83.0- 5.0 1.7---- 0.0------------
1999-06-25 12.3 15.6 10.9 9.8 92.8- 6.0 1.3---- 4.7------------
1999-06-24 12.5 14.8 10.5 10.5 92.8- 8.0 2.3---- 9.7------------
1999-06-23 13.1 17.0 11.2 11.1 95.5- 8.0 3.7---- 7.0------------
1999-06-22 16.7 20.2 13.7 13.7 90.3- 8.0 4.0---- 14.1------------
1999-06-21 19.1 23.1 16.8 14.5 80.0- 7.0 1.7---- 1.6------------
1999-06-20 20.2 24.4 14.4 12.6 80.8- 5.0 2.0---- 0.0------------
1999-06-19 21.9 28.3 16.9 14.6 75.3- 4.7 1.3---- 0.0------------
1999-06-18 18.9 22.5 15.9 15.8 89.5- 8.0 3.7---- 0.0------------
1999-06-17 18.7 22.7 15.8 15.6 90.8- 8.0 2.0---- 8.2------------
1999-06-16 18.5 21.7 16.4 16.0 92.3- 7.3 2.7---- 0.0------------
290.4 ms

 

Źródłem pochodzenia danych jest Instytut Meteorologii i Gospodarki Wodnej – Państwowy Instytut Badawczy. Dane Instytutu Meteorologii i Gospodarki Wodnej – Państwowego Instytutu Badawczego zostały przetworzone.

Dane źródłowe można odnaleźć na stronie https://dane.imgw.pl